Time;durP1;ratioP1;P1;durP2;ratioP2;P2;SDS_P1;SDS_P2;PMS_P1;PMS_P2;Temp;Humidity;BMP_temperature;BMP_pressure;BME280_temperature;BME280_humidity;BME280_pressure;Samples;Min_cycle;Max_cycle;Signal;HPM_P1;HPM_P2
2023/03/01 00:01:27;;;;;;;15.57;7.37;;;;;;;0.83;95.12;96901.50;5043517;28;20266;-76
2023/03/01 00:03:56;;;;;;;14.87;6.33;;;;;;;0.84;94.47;96901.41;5041351;28;20205;-76
2023/03/01 00:06:23;;;;;;;14.73;6.67;;;;;;;0.77;94.34;96892.34;5041332;28;20217;-77
2023/03/01 00:08:50;;;;;;;19.53;8.93;;;;;;;0.75;94.94;96886.47;5042019;28;20569;-74
2023/03/01 00:11:18;;;;;;;21.97;8.23;;;;;;;0.88;93.80;96889.03;5041768;28;20240;-77
2023/03/01 00:13:46;;;;;;;16.80;6.17;;;;;;;0.70;94.40;96890.28;5042873;28;20214;-76
2023/03/01 00:16:15;;;;;;;19.43;6.90;;;;;;;0.86;93.42;96890.94;5044006;28;20205;-76
2023/03/01 00:18:43;;;;;;;20.13;7.67;;;;;;;0.83;93.49;96891.97;5044235;28;20216;-77
2023/03/01 00:21:09;;;;;;;23.07;8.07;;;;;;;0.80;93.74;96888.72;5044979;28;20708;-75
2023/03/01 00:23:36;;;;;;;20.60;7.43;;;;;;;0.93;94.05;96894.75;5040388;28;20206;-74
2023/03/01 00:26:03;;;;;;;23.70;8.73;;;;;;;0.95;93.75;96885.94;5042957;28;20225;-74
2023/03/01 00:28:29;;;;;;;19.33;7.23;;;;;;;0.88;94.18;96883.84;5044313;28;20197;-74
2023/03/01 00:30:56;;;;;;;19.97;7.50;;;;;;;0.94;92.78;96880.84;5046126;28;20678;-74
2023/03/01 00:33:22;;;;;;;20.70;8.13;;;;;;;0.94;94.05;96878.25;5044292;28;20202;-74
2023/03/01 00:35:50;;;;;;;17.93;7.47;;;;;;;1.05;93.35;96875.78;5045230;28;20548;-74
2023/03/01 00:38:16;;;;;;;17.80;7.27;;;;;;;0.91;93.24;96878.47;5044123;28;20661;-74
2023/03/01 00:40:43;;;;;;;18.20;7.27;;;;;;;0.91;93.38;96873.28;5044968;28;20205;-75
2023/03/01 00:43:10;;;;;;;15.80;6.73;;;;;;;0.82;94.13;96866.13;5044501;28;20229;-75
2023/03/01 00:45:36;;;;;;;16.27;6.77;;;;;;;0.90;94.50;96871.63;5042781;28;20732;-77
2023/03/01 00:48:03;;;;;;;19.77;7.47;;;;;;;0.80;94.15;96865.38;5045397;28;20205;-74
2023/03/01 00:50:29;;;;;;;19.17;7.47;;;;;;;0.87;94.28;96864.88;5045449;28;20209;-74
2023/03/01 00:52:57;;;;;;;15.77;7.00;;;;;;;0.91;94.54;96865.50;5042718;28;20235;-76
2023/03/01 00:55:24;;;;;;;16.00;7.23;;;;;;;0.83;95.00;96867.78;5044318;28;20202;-75
2023/03/01 00:57:51;;;;;;;21.87;8.43;;;;;;;0.85;95.26;96860.72;5043382;28;20201;-74
2023/03/01 01:00:18;;;;;;;16.93;6.27;;;;;;;0.90;93.98;96858.66;5046235;28;20232;-77
2023/03/01 01:02:45;;;;;;;19.73;7.60;;;;;;;0.98;93.98;96852.03;5045727;28;20236;-74
2023/03/01 01:05:12;;;;;;;19.13;7.17;;;;;;;0.91;93.95;96848.16;5044930;28;20243;-74
2023/03/01 01:07:39;;;;;;;24.43;7.97;;;;;;;0.99;94.16;96837.28;5044151;28;20220;-75
2023/03/01 01:10:08;;;;;;;18.77;8.23;;;;;;;1.07;92.85;96838.41;5045979;28;20209;-76
2023/03/01 01:12:34;;;;;;;17.87;8.33;;;;;;;0.94;93.23;96837.59;5045910;28;20222;-74
2023/03/01 01:15:01;;;;;;;24.00;7.50;;;;;;;0.92;93.39;96833.44;5044562;28;20260;-75
2023/03/01 01:17:27;;;;;;;22.90;7.70;;;;;;;0.95;93.14;96836.63;5045751;28;20755;-77
2023/03/01 01:19:54;;;;;;;19.00;7.23;;;;;;;0.95;93.68;96838.41;5046889;28;20205;-75
2023/03/01 01:22:20;;;;;;;16.33;7.77;;;;;;;0.90;93.80;96830.94;5045976;28;20232;-74
2023/03/01 01:24:46;;;;;;;20.13;7.60;;;;;;;0.99;93.87;96830.31;5045348;28;20213;-78
2023/03/01 01:27:14;;;;;;;17.87;7.83;;;;;;;0.95;93.68;96821.06;5048314;28;20336;-74
2023/03/01 01:29:41;;;;;;;17.37;6.33;;;;;;;0.92;94.34;96820.47;5045716;28;20216;-75
2023/03/01 01:32:08;;;;;;;19.70;8.30;;;;;;;1.02;93.67;96818.88;5046628;28;21124;-77
2023/03/01 01:34:34;;;;;;;21.33;8.00;;;;;;;0.96;93.03;96816.75;5045953;28;20209;-75
2023/03/01 01:37:02;;;;;;;19.93;7.77;;;;;;;0.93;93.24;96810.00;5048923;28;20205;-76
2023/03/01 01:39:29;;;;;;;15.93;7.77;;;;;;;0.89;93.27;96808.53;5053235;28;20204;-74
2023/03/01 01:41:55;;;;;;;21.87;8.27;;;;;;;0.94;93.21;96813.41;5054045;28;20232;-74
2023/03/01 01:44:26;;;;;;;14.53;6.53;;;;;;;0.90;93.49;96796.41;5056126;28;20212;-75
2023/03/01 01:46:56;;;;;;;19.67;7.60;;;;;;;0.89;93.45;96807.69;5054278;28;20252;-75
2023/03/01 01:49:36;;;;;;;19.50;7.20;;;;;;;0.96;93.37;96803.75;5055898;28;20209;-75
2023/03/01 01:52:09;;;;;;;15.87;7.57;;;;;;;0.84;93.93;96802.84;5059971;28;20221;-76
2023/03/01 01:54:42;;;;;;;23.23;6.50;;;;;;;0.93;93.02;96798.75;5056421;28;20204;-76
2023/03/01 01:57:14;;;;;;;19.73;6.53;;;;;;;0.95;93.23;96802.09;5057092;28;20205;-75
2023/03/01 01:59:46;;;;;;;21.50;7.27;;;;;;;1.01;92.71;96801.69;5056122;28;20212;-76
2023/03/01 02:02:14;;;;;;;15.83;6.83;;;;;;;0.86;92.87;96798.34;5061038;28;20713;-74
2023/03/01 02:04:41;;;;;;;15.27;6.93;;;;;;;0.93;92.37;96799.63;5056325;28;20215;-74
2023/03/01 02:07:15;;;;;;;19.03;7.03;;;;;;;1.02;92.71;96793.78;5055139;28;20771;-76
2023/03/01 02:09:45;;;;;;;16.43;6.37;;;;;;;0.89;92.57;96792.13;5054094;28;21248;-74
2023/03/01 02:12:11;;;;;;;19.30;7.53;;;;;;;0.78;92.96;96799.84;5058317;28;20232;-73
2023/03/01 02:14:38;;;;;;;20.27;8.40;;;;;;;0.87;93.10;96799.22;5055623;28;20226;-77
2023/03/01 02:17:06;;;;;;;18.23;7.37;;;;;;;0.99;92.85;96793.97;5054905;28;20201;-74
2023/03/01 02:19:44;;;;;;;19.40;8.63;;;;;;;1.06;93.12;96794.38;5052396;28;20205;-77
2023/03/01 02:22:20;;;;;;;22.60;9.37;;;;;;;0.96;92.82;96794.19;5055396;28;20704;-74
2023/03/01 02:24:58;;;;;;;19.27;8.10;;;;;;;1.10;93.53;96791.47;5054268;28;20207;-74
2023/03/01 02:27:34;;;;;;;17.67;7.47;;;;;;;1.03;94.22;96792.00;5052534;28;20232;-74
2023/03/01 02:30:02;;;;;;;13.83;6.30;;;;;;;1.02;92.97;96792.94;5056280;28;20211;-74
2023/03/01 02:32:28;;;;;;;18.93;7.93;;;;;;;0.99;92.92;96781.00;5053659;28;20221;-76
2023/03/01 02:35:06;;;;;;;23.43;7.67;;;;;;;0.90;93.04;96778.22;5052876;28;20214;-77
2023/03/01 02:37:32;;;;;;;26.13;8.67;;;;;;;0.94;93.35;96764.13;5058198;28;20202;-76
2023/03/01 02:40:03;;;;;;;22.77;9.07;;;;;;;0.98;93.75;96770.75;5054373;28;20225;-74
2023/03/01 02:42:40;;;;;;;16.47;7.17;;;;;;;0.89;93.71;96769.63;5056489;28;20286;-76
2023/03/01 02:45:10;;;;;;;23.73;8.77;;;;;;;0.98;92.87;96770.75;5056726;28;20459;-74
2023/03/01 02:47:36;;;;;;;18.97;7.77;;;;;;;0.93;93.16;96762.44;5054552;28;20231;-73
2023/03/01 02:50:03;;;;;;;22.67;7.77;;;;;;;1.00;93.60;96766.28;5052686;28;20273;-76
2023/03/01 02:52:38;;;;;;;16.57;7.20;;;;;;;1.02;92.79;96761.81;5054584;28;20222;-74
2023/03/01 02:55:08;;;;;;;18.70;7.80;;;;;;;0.95;93.30;96765.78;5054609;28;20209;-76
2023/03/01 02:57:37;;;;;;;24.13;8.33;;;;;;;1.08;92.75;96766.56;5055481;28;20218;-74
2023/03/01 03:00:11;;;;;;;19.87;8.10;;;;;;;0.97;93.72;96761.28;5057482;28;20212;-75
2023/03/01 03:02:38;;;;;;;22.63;8.40;;;;;;;1.00;93.33;96761.09;5055798;28;20221;-76
2023/03/01 03:05:09;;;;;;;13.87;6.77;;;;;;;0.90;93.60;96752.28;5054493;28;20628;-75
2023/03/01 03:07:37;;;;;;;19.67;8.30;;;;;;;1.00;92.26;96756.72;5055237;28;20263;-77
2023/03/01 03:10:13;;;;;;;19.73;7.77;;;;;;;0.99;92.50;96755.06;5057337;28;20217;-75
2023/03/01 03:12:41;;;;;;;22.23;7.53;;;;;;;1.08;91.67;96753.59;5056677;28;20613;-75
2023/03/01 03:15:12;;;;;;;14.37;5.60;;;;;;;1.03;91.62;96748.75;5056534;28;20205;-77
2023/03/01 03:17:42;;;;;;;17.07;7.40;;;;;;;1.01;90.98;96745.41;5057779;28;20649;-76
2023/03/01 03:20:18;;;;;;;21.93;7.97;;;;;;;0.92;91.77;96740.88;5058007;28;20268;-75
2023/03/01 03:22:45;;;;;;;19.40;7.67;;;;;;;1.03;92.30;96753.09;5053631;28;20814;-76
2023/03/01 03:25:12;;;;;;;17.77;6.90;;;;;;;0.95;91.15;96745.03;5054694;28;20197;-77
2023/03/01 03:27:39;;;;;;;16.57;6.63;;;;;;;0.91;91.98;96748.78;5056528;28;20229;-77
2023/03/01 03:30:08;;;;;;;33.97;9.80;;;;;;;0.97;91.53;96738.78;5055862;28;20215;-74
2023/03/01 03:32:35;;;;;;;23.73;8.53;;;;;;;0.87;92.99;96734.34;5050829;28;20230;-75
2023/03/01 03:35:08;;;;;;;25.33;8.00;;;;;;;1.08;91.90;96740.63;5054877;28;20209;-74
2023/03/01 03:40:19;;;;;;;20.50;7.73;;;;;;;0.98;92.13;96731.81;5056225;28;20212;-75
2023/03/01 03:42:45;;;;;;;26.00;7.20;;;;;;;0.94;92.34;96744.19;5054551;28;20229;-75
2023/03/01 03:45:12;;;;;;;18.73;8.90;;;;;;;0.96;93.36;96742.31;5054500;28;20212;-76
2023/03/01 03:47:38;;;;;;;20.67;7.30;;;;;;;1.02;93.59;96739.31;5053935;28;21185;-75
2023/03/01 03:50:07;;;;;;;20.47;7.33;;;;;;;1.08;93.82;96735.44;5053357;28;20214;-75
2023/03/01 03:52:33;;;;;;;25.03;9.07;;;;;;;1.05;93.67;96740.84;5051996;28;20228;-74
2023/03/01 03:55:00;;;;;;;25.97;9.23;;;;;;;0.96;94.89;96742.31;5050908;28;20216;-76
2023/03/01 03:57:26;;;;;;;29.20;9.27;;;;;;;1.06;93.40;96737.28;5050881;28;20229;-75
2023/03/01 03:59:53;;;;;;;21.77;7.30;;;;;;;1.05;94.22;96739.06;5049542;28;20209;-75
2023/03/01 04:02:21;;;;;;;17.80;6.73;;;;;;;1.06;94.37;96734.69;5046495;28;20592;-74
2023/03/01 04:04:49;;;;;;;25.57;8.33;;;;;;;1.12;93.91;96732.53;5046477;28;20209;-76
2023/03/01 04:07:17;;;;;;;20.40;7.77;;;;;;;0.97;93.71;96722.38;5051621;28;20257;-74
2023/03/01 04:09:44;;;;;;;22.17;8.93;;;;;;;0.98;93.36;96737.88;5050885;28;20227;-76
2023/03/01 04:12:11;;;;;;;20.77;7.80;;;;;;;1.02;93.50;96725.47;5049669;28;20229;-74
2023/03/01 04:14:37;;;;;;;18.90;7.77;;;;;;;0.99;92.99;96725.72;5048573;28;20212;-76
2023/03/01 04:17:05;;;;;;;24.27;8.67;;;;;;;1.02;92.93;96720.28;5050216;28;20209;-74
2023/03/01 04:19:35;;;;;;;22.33;8.53;;;;;;;1.00;93.44;96724.78;5051414;28;20198;-75
2023/03/01 04:22:07;;;;;;;17.07;6.93;;;;;;;0.99;93.63;96720.53;5050569;28;20872;-75
2023/03/01 04:24:35;;;;;;;24.70;9.13;;;;;;;1.00;93.76;96719.59;5048299;28;20197;-75
2023/03/01 04:27:01;;;;;;;18.37;7.83;;;;;;;1.04;93.58;96719.25;5048711;28;20229;-74
2023/03/01 04:29:28;;;;;;;23.33;7.43;;;;;;;0.97;93.70;96718.03;5049147;28;20206;-76
2023/03/01 04:31:54;;;;;;;17.73;7.13;;;;;;;0.92;93.85;96714.94;5052770;28;20237;-74
2023/03/01 04:34:21;;;;;;;19.90;8.03;;;;;;;0.85;95.32;96708.53;5045372;28;20201;-74
2023/03/01 04:36:47;;;;;;;24.80;8.03;;;;;;;0.91;94.63;96708.06;5044463;28;20201;-76
2023/03/01 04:39:14;;;;;;;20.40;8.47;;;;;;;1.08;93.05;96699.09;5050638;28;20209;-77
2023/03/01 04:41:43;;;;;;;22.27;8.50;;;;;;;1.19;92.03;96702.59;5050958;28;20225;-74
2023/03/01 04:44:10;;;;;;;31.97;9.90;;;;;;;1.13;92.34;96702.22;5050141;28;20201;-74
2023/03/01 04:46:37;;;;;;;28.97;8.47;;;;;;;0.97;93.81;96701.63;5053034;28;20232;-77
2023/03/01 04:49:04;;;;;;;22.60;7.90;;;;;;;0.98;92.94;96698.09;5052627;28;20850;-75
2023/03/01 04:51:32;;;;;;;18.33;7.57;;;;;;;0.91;93.22;96705.47;5051614;28;20221;-74
2023/03/01 04:54:00;;;;;;;31.90;8.37;;;;;;;0.84;92.95;96701.69;5049893;28;20295;-73
2023/03/01 04:56:27;;;;;;;23.33;7.53;;;;;;;0.86;93.00;96701.56;5052238;28;20240;-75
2023/03/01 04:58:55;;;;;;;21.53;8.60;;;;;;;0.96;92.73;96710.38;5051103;28;20220;-76
2023/03/01 05:01:22;;;;;;;17.67;7.67;;;;;;;0.84;92.84;96708.59;5050359;28;20225;-77
2023/03/01 05:03:50;;;;;;;18.27;7.77;;;;;;;0.84;92.60;96706.00;5052989;28;20233;-76
2023/03/01 05:06:18;;;;;;;23.90;9.33;;;;;;;0.81;93.04;96701.06;5053981;28;20215;-76
2023/03/01 05:08:47;;;;;;;22.97;6.47;;;;;;;0.58;92.90;96690.63;5052852;28;20217;-76
2023/03/01 05:11:14;;;;;;;14.80;6.93;;;;;;;0.60;92.90;96699.97;5053894;28;20221;-78
2023/03/01 05:13:41;;;;;;;14.20;6.57;;;;;;;0.69;93.19;96694.16;5051300;28;20196;-75
2023/03/01 05:16:10;;;;;;;19.17;8.47;;;;;;;0.68;92.82;96695.06;5052541;28;20216;-76
2023/03/01 05:18:37;;;;;;;23.33;8.23;;;;;;;0.63;92.57;96687.59;5052535;28;20201;-76
2023/03/01 05:21:06;;;;;;;22.07;7.67;;;;;;;0.58;93.47;96699.22;5053073;28;20327;-74
2023/03/01 05:23:34;;;;;;;16.67;7.13;;;;;;;0.51;92.97;96698.00;5051179;28;20207;-76
2023/03/01 05:26:01;;;;;;;20.33;8.17;;;;;;;0.44;92.72;96696.75;5049092;28;20235;-78
2023/03/01 05:28:29;;;;;;;19.90;8.67;;;;;;;0.27;93.37;96699.69;5047663;28;20233;-77
2023/03/01 05:30:56;;;;;;;18.17;7.50;;;;;;;0.34;93.63;96690.53;5047121;28;20205;-75
2023/03/01 05:33:25;;;;;;;19.03;6.60;;;;;;;0.35;93.55;96701.75;5046203;28;20216;-78
2023/03/01 05:35:53;;;;;;;19.37;8.43;;;;;;;0.23;93.63;96693.03;5045945;28;20274;-77
2023/03/01 05:38:21;;;;;;;19.37;7.80;;;;;;;0.23;93.34;96690.47;5044976;28;20197;-76
2023/03/01 05:40:49;;;;;;;15.47;6.67;;;;;;;0.09;93.54;96693.16;5045372;28;20208;-75
2023/03/01 05:43:17;;;;;;;21.57;8.60;;;;;;;0.15;94.77;96699.66;5042783;28;20228;-74
2023/03/01 05:45:44;;;;;;;16.53;7.27;;;;;;;-0.02;95.05;96701.75;5045529;28;20212;-76
2023/03/01 05:48:13;;;;;;;23.70;7.53;;;;;;;0.06;94.53;96695.94;5046354;28;20232;-76
2023/03/01 05:50:42;;;;;;;17.57;7.20;;;;;;;0.06;94.26;96695.94;5043448;28;20244;-73
2023/03/01 05:53:11;;;;;;;17.90;6.93;;;;;;;0.07;94.13;96692.41;5040230;28;20704;-74
2023/03/01 05:55:39;;;;;;;17.30;6.67;;;;;;;0.06;93.83;96698.53;5041146;28;20217;-77
2023/03/01 05:58:08;;;;;;;25.53;9.10;;;;;;;0.02;94.43;96702.25;5041797;28;20743;-76
2023/03/01 06:00:35;;;;;;;21.27;8.30;;;;;;;-0.03;94.60;96700.09;5040366;28;20216;-76
2023/03/01 06:03:02;;;;;;;20.23;8.73;;;;;;;-0.05;95.13;96702.78;5039947;28;20221;-75
2023/03/01 06:05:29;;;;;;;21.27;8.43;;;;;;;0.02;95.23;96702.25;5035023;28;20292;-74
2023/03/01 06:08:00;;;;;;;16.53;6.90;;;;;;;0.11;94.69;96699.03;5036297;28;20251;-74
2023/03/01 06:10:26;;;;;;;20.07;8.57;;;;;;;-0.07;94.40;96711.59;5035483;28;20269;-74
2023/03/01 06:12:53;;;;;;;23.93;9.30;;;;;;;0.02;94.00;96710.00;5035219;28;20225;-75
2023/03/01 06:15:20;;;;;;;16.47;7.47;;;;;;;-0.02;94.34;96715.53;5034921;28;20608;-74
2023/03/01 06:17:46;;;;;;;23.43;8.53;;;;;;;0.09;93.74;96710.47;5035667;28;20197;-76
2023/03/01 06:20:16;;;;;;;27.47;10.23;;;;;;;-0.14;95.57;96708.56;5036417;28;20205;-74
2023/03/01 06:22:43;;;;;;;27.03;9.33;;;;;;;-0.10;95.90;96711.75;5034940;28;20916;-74
2023/03/01 06:25:13;;;;;;;20.17;8.60;;;;;;;0.00;94.41;96711.09;5036157;28;20208;-75
2023/03/01 06:27:40;;;;;;;25.57;9.10;;;;;;;-0.13;94.69;96717.97;5040473;28;20700;-75
2023/03/01 06:30:09;;;;;;;15.10;6.67;;;;;;;-0.09;94.94;96703.91;5038907;28;20209;-74
2023/03/01 06:32:36;;;;;;;20.70;8.00;;;;;;;-0.06;95.38;96713.22;5038689;28;20387;-76
2023/03/01 06:35:02;;;;;;;17.27;6.97;;;;;;;-0.18;94.67;96711.44;5039029;28;20252;-76
2023/03/01 06:37:29;;;;;;;21.80;8.40;;;;;;;-0.16;95.31;96714.78;5038737;28;20200;-76
2023/03/01 06:39:55;;;;;;;22.73;8.80;;;;;;;-0.18;96.24;96721.81;5039132;28;20210;-73
2023/03/01 06:42:23;;;;;;;21.27;7.70;;;;;;;-0.09;95.96;96710.84;5039385;28;20221;-76
2023/03/01 06:44:50;;;;;;;24.67;9.47;;;;;;;-0.23;96.15;96718.69;5039096;28;20210;-76
2023/03/01 06:47:16;;;;;;;20.20;7.50;;;;;;;-0.26;96.73;96731.84;5039281;28;20229;-75
2023/03/01 06:49:43;;;;;;;19.00;7.70;;;;;;;-0.27;96.50;96725.00;5039396;28;20216;-75
2023/03/01 06:52:09;;;;;;;23.03;9.70;;;;;;;-0.14;96.90;96718.09;5039295;28;20590;-75
2023/03/01 06:54:36;;;;;;;17.13;7.37;;;;;;;-0.12;95.99;96708.47;5038294;28;20205;-74
2023/03/01 06:57:02;;;;;;;22.63;8.10;;;;;;;-0.08;95.72;96721.09;5038820;28;20760;-74
2023/03/01 06:59:31;;;;;;;24.10;8.23;;;;;;;0.03;96.13;96714.28;5038480;28;20206;-75
2023/03/01 07:01:57;;;;;;;27.73;7.60;;;;;;;0.00;95.49;96716.25;5039395;28;20321;-75
2023/03/01 07:04:24;;;;;;;24.73;9.20;;;;;;;0.08;95.97;96719.16;5038533;28;20205;-74
2023/03/01 07:06:54;;;;;;;25.30;9.10;;;;;;;0.06;95.69;96703.72;5039000;28;20229;-74
2023/03/01 07:09:21;;;;;;;21.33;8.63;;;;;;;0.10;95.43;96699.16;5038533;28;20220;-75
2023/03/01 07:11:48;;;;;;;21.17;8.93;;;;;;;0.05;96.04;96704.66;5039289;28;20256;-73
2023/03/01 07:14:14;;;;;;;19.83;9.07;;;;;;;0.13;95.08;96704.97;5038106;28;20205;-74
2023/03/01 07:16:42;;;;;;;20.90;8.30;;;;;;;0.13;95.44;96701.56;5039034;28;20205;-76
2023/03/01 07:19:09;;;;;;;16.20;6.67;;;;;;;0.18;94.99;96695.13;5038461;28;20205;-76
2023/03/01 07:21:37;;;;;;;18.73;7.03;;;;;;;0.08;95.25;96695.84;5039351;28;20225;-75
2023/03/01 07:24:04;;;;;;;26.57;8.10;;;;;;;-0.08;94.93;96696.97;5037886;28;20251;-75
2023/03/01 07:26:30;;;;;;;26.93;10.20;;;;;;;0.01;95.65;96694.59;5039017;28;20201;-75
2023/03/01 07:29:00;;;;;;;27.43;8.93;;;;;;;0.13;94.46;96689.41;5038828;28;20220;-74
2023/03/01 07:31:27;;;;;;;19.03;7.90;;;;;;;0.00;96.13;96690.34;5037731;28;20213;-74
2023/03/01 07:33:55;;;;;;;21.77;7.67;;;;;;;0.22;95.15;96688.78;5037644;28;20206;-74
2023/03/01 07:36:23;;;;;;;21.77;8.37;;;;;;;0.17;95.19;96690.88;5037647;28;20217;-74
2023/03/01 07:38:49;;;;;;;20.87;9.30;;;;;;;0.34;94.26;96687.94;5037994;28;20206;-76
2023/03/01 07:41:16;;;;;;;18.93;8.40;;;;;;;0.36;95.51;96688.69;5038523;28;20233;-76
2023/03/01 07:43:42;;;;;;;24.63;10.10;;;;;;;0.42;94.25;96684.84;5039128;28;20209;-75
2023/03/01 07:46:09;;;;;;;19.73;7.17;;;;;;;1.14;98.70;96680.53;5039712;28;20205;-73
2023/03/01 07:48:36;;;;;;;22.03;8.07;;;;;;;1.06;92.77;96686.25;5040852;28;20703;-76
2023/03/01 07:51:06;;;;;;;30.17;9.20;;;;;;;1.11;92.08;96678.13;5039780;28;20214;-77
2023/03/01 07:53:33;;;;;;;27.13;9.83;;;;;;;0.88;92.17;96676.31;5040537;28;20220;-76
2023/03/01 07:56:04;;;;;;;20.50;7.73;;;;;;;1.12;92.01;96678.03;5037485;28;20819;-76
2023/03/01 07:58:31;;;;;;;29.20;8.23;;;;;;;1.04;91.50;96679.50;5037762;28;20197;-76
2023/03/01 08:01:27;;;;;;;27.70;9.67;;;;;;;1.21;91.40;96680.78;5037278;28;20701;-75
2023/03/01 08:03:53;;;;;;;22.77;9.70;;;;;;;1.19;91.97;96669.69;5037793;28;20209;-76
2023/03/01 08:06:21;;;;;;;23.77;8.53;;;;;;;1.23;90.42;96665.09;5037919;28;20913;-75
2023/03/01 08:08:48;;;;;;;23.03;9.10;;;;;;;1.30;89.60;96672.34;5037893;28;20359;-76
2023/03/01 08:11:15;;;;;;;21.80;9.20;;;;;;;1.21;90.93;96670.41;5037728;28;20232;-75
2023/03/01 08:13:43;;;;;;;24.43;8.13;;;;;;;1.36;90.40;96658.94;5036720;28;20590;-74
2023/03/01 08:16:11;;;;;;;21.13;9.20;;;;;;;1.32;90.93;96667.88;5038038;28;20205;-73
2023/03/01 08:18:38;;;;;;;26.10;9.50;;;;;;;1.56;89.14;96671.25;5038349;28;20205;-74
2023/03/01 08:21:05;;;;;;;26.03;10.70;;;;;;;1.50;88.85;96661.34;5038616;28;20205;-78
2023/03/01 08:23:33;;;;;;;18.33;6.93;;;;;;;1.56;87.14;96663.47;5037789;28;20208;-75
2023/03/01 08:26:08;;;;;;;24.07;9.40;;;;;;;1.68;87.34;96662.59;5038076;28;20198;-74
2023/03/01 08:28:35;;;;;;;21.70;8.60;;;;;;;1.59;85.76;96660.66;5038332;28;20702;-76
2023/03/01 08:31:01;;;;;;;18.67;8.23;;;;;;;1.58;87.00;96663.34;5037594;28;21281;-77
2023/03/01 08:33:28;;;;;;;29.47;10.53;;;;;;;1.53;87.82;96662.88;5035492;28;20217;-75
2023/03/01 08:36:03;;;;;;;29.13;10.53;;;;;;;1.87;86.77;96655.06;5036897;28;20197;-69
2023/03/01 08:38:29;;;;;;;26.03;10.17;;;;;;;1.86;86.23;96658.63;5038172;28;20197;-78
2023/03/01 08:41:00;;;;;;;26.27;10.10;;;;;;;2.02;86.25;96659.94;5037569;28;20205;-77
2023/03/01 08:43:27;;;;;;;22.93;7.50;;;;;;;1.88;84.23;96654.97;5038732;28;20198;-73
2023/03/01 08:45:53;;;;;;;22.70;8.10;;;;;;;1.96;83.33;96644.81;5039022;28;20202;-77
2023/03/01 08:48:20;;;;;;;26.83;9.80;;;;;;;1.86;85.55;96658.63;5037615;28;20217;-74
2023/03/01 08:50:46;;;;;;;22.17;9.00;;;;;;;2.12;85.08;96645.31;5038842;28;20666;-75
2023/03/01 08:53:13;;;;;;;19.30;9.17;;;;;;;2.39;84.25;96642.38;5037279;28;20822;-72
2023/03/01 08:55:39;;;;;;;24.33;9.07;;;;;;;2.22;85.00;96646.25;5036068;28;20213;-74
2023/03/01 08:58:07;;;;;;;20.87;7.97;;;;;;;2.37;82.74;96644.25;5036206;28;20225;-73
2023/03/01 09:00:34;;;;;;;25.83;8.83;;;;;;;2.25;82.49;96653.00;5038447;28;20205;-76
2023/03/01 09:03:01;;;;;;;29.80;10.03;;;;;;;2.28;82.09;96644.97;5035691;28;20225;-76
2023/03/01 09:05:27;;;;;;;21.83;8.23;;;;;;;2.32;81.79;96643.78;5034296;28;20203;-76
2023/03/01 09:07:54;;;;;;;25.80;10.17;;;;;;;2.23;82.14;96645.31;5034798;28;20229;-74
2023/03/01 09:10:20;;;;;;;27.97;8.43;;;;;;;2.26;82.02;96650.28;5035108;28;20211;-75
2023/03/01 09:12:46;;;;;;;31.63;9.93;;;;;;;2.18;82.38;96638.84;5035394;28;20229;-75
2023/03/01 09:15:14;;;;;;;24.80;8.37;;;;;;;2.28;83.38;96637.16;5035457;28;21094;-74
2023/03/01 09:17:41;;;;;;;22.20;7.60;;;;;;;2.25;82.40;96634.81;5036108;28;20209;-75
2023/03/01 09:20:08;;;;;;;31.30;10.40;;;;;;;2.19;82.01;96636.13;5035566;28;20213;-75
2023/03/01 09:22:35;;;;;;;22.53;8.63;;;;;;;2.16;82.42;96636.31;5035598;28;20229;-73
2023/03/01 09:25:01;;;;;;;19.57;7.90;;;;;;;2.46;82.74;96639.19;5035538;28;20213;-75
2023/03/01 09:27:28;;;;;;;25.33;8.20;;;;;;;2.67;82.03;96633.16;5036145;28;20199;-75
2023/03/01 09:29:56;;;;;;;20.73;8.40;;;;;;;2.59;82.21;96632.91;5036434;28;20238;-74
2023/03/01 09:32:24;;;;;;;25.70;9.60;;;;;;;2.54;81.17;96624.63;5034222;28;20225;-73
2023/03/01 09:35:04;;;;;;;29.63;8.90;;;;;;;2.55;81.60;96631.50;5030207;28;20933;-73
2023/03/01 09:37:31;;;;;;;20.77;8.40;;;;;;;2.71;81.65;96618.13;5033943;28;20208;-74
2023/03/01 09:39:58;;;;;;;21.70;7.73;;;;;;;2.67;80.50;96625.34;5033999;28;20278;-74
2023/03/01 09:42:25;;;;;;;21.97;8.57;;;;;;;2.79;79.80;96621.78;5033707;28;20220;-73
2023/03/01 09:44:57;;;;;;;29.60;9.73;;;;;;;2.82;80.98;96624.13;5033500;28;20219;-73
2023/03/01 09:47:28;;;;;;;27.33;8.37;;;;;;;2.82;78.84;96616.31;5033480;28;20262;-73
2023/03/01 09:50:02;;;;;;;23.47;8.27;;;;;;;2.74;79.10;96623.91;5033800;28;20227;-73
2023/03/01 09:52:37;;;;;;;29.87;9.67;;;;;;;2.62;80.62;96619.69;5033413;28;20223;-73
2023/03/01 09:55:11;;;;;;;19.97;7.87;;;;;;;2.67;80.72;96622.75;5032637;28;20206;-71
2023/03/01 09:57:42;;;;;;;22.37;8.43;;;;;;;2.83;81.13;96620.59;5032319;28;20233;-73
2023/03/01 10:00:20;;;;;;;28.70;9.10;;;;;;;2.79;79.30;96618.31;5034732;28;20204;-73
2023/03/01 10:02:55;;;;;;;25.63;8.77;;;;;;;2.97;79.11;96620.31;5036537;28;20232;-71
2023/03/01 10:05:34;;;;;;;29.63;9.73;;;;;;;3.14;78.83;96617.19;5037643;28;20207;-75
2023/03/01 10:08:15;;;;;;;28.20;9.97;;;;;;;3.21;78.39;96607.94;5037778;28;20217;-73
2023/03/01 10:10:45;;;;;;;23.53;9.27;;;;;;;3.20;77.27;96601.09;5037416;28;20213;-74
2023/03/01 10:13:18;;;;;;;26.70;10.33;;;;;;;3.06;79.04;96596.16;5037411;28;20233;-74
2023/03/01 10:15:49;;;;;;;28.07;10.37;;;;;;;3.16;78.19;96604.88;5037650;28;20214;-74
2023/03/01 10:18:20;;;;;;;27.63;10.20;;;;;;;2.81;78.56;96601.66;5038084;28;20223;-74
2023/03/01 10:20:53;;;;;;;25.50;9.57;;;;;;;2.82;79.23;96589.47;5038376;28;20668;-75
2023/03/01 10:23:20;;;;;;;23.87;9.47;;;;;;;2.65;79.29;96590.00;5037499;28;20220;-71
2023/03/01 10:26:04;;;;;;;30.00;10.83;;;;;;;3.21;79.02;96582.72;5037649;28;20206;-74
2023/03/01 10:28:36;;;;;;;23.00;9.67;;;;;;;3.54;78.60;96579.13;5037288;28;20224;-71
2023/03/01 10:31:03;;;;;;;28.53;11.27;;;;;;;3.83;76.53;96575.75;5037481;28;20218;-71
2023/03/01 10:33:36;;;;;;;25.53;10.03;;;;;;;3.83;76.34;96579.22;5036673;28;20893;-74
2023/03/01 10:36:03;;;;;;;24.73;10.23;;;;;;;3.96;76.71;96574.63;5037630;28;20216;-74
2023/03/01 10:38:32;;;;;;;28.13;10.60;;;;;;;4.13;74.40;96571.41;5037085;28;20651;-75
2023/03/01 10:41:01;;;;;;;28.53;9.77;;;;;;;4.27;71.96;96576.28;5037770;28;20207;-71
2023/03/01 10:43:41;;;;;;;30.80;10.53;;;;;;;4.40;73.04;96566.44;5036346;28;20232;-71
2023/03/01 10:46:23;;;;;;;23.00;9.57;;;;;;;4.42;72.08;96561.94;5037173;28;20216;-73
2023/03/01 10:49:07;;;;;;;27.83;10.53;;;;;;;4.32;74.62;96563.69;5037087;28;20224;-75
2023/03/01 10:51:33;;;;;;;25.83;10.87;;;;;;;4.52;77.61;96555.78;5037120;28;21065;-71
2023/03/01 10:54:00;;;;;;;25.77;10.03;;;;;;;4.32;74.70;96553.25;5037062;28;20564;-72
2023/03/01 10:56:26;;;;;;;30.60;11.07;;;;;;;4.20;74.32;96545.63;5036274;28;20205;-73
2023/03/01 10:59:01;;;;;;;25.63;10.37;;;;;;;4.90;75.38;96542.81;5037352;28;20212;-71
2023/03/01 11:01:31;;;;;;;24.00;9.80;;;;;;;4.93;73.15;96539.94;5037076;28;20221;-74
2023/03/01 11:04:13;;;;;;;28.60;11.57;;;;;;;4.93;70.64;96540.75;5036233;28;20993;-73
2023/03/01 11:06:41;;;;;;;26.73;10.17;;;;;;;4.78;74.11;96541.28;5036441;28;20209;-71
2023/03/01 11:09:15;;;;;;;30.57;10.40;;;;;;;5.00;71.55;96518.38;5036417;28;20221;-71
2023/03/01 11:11:42;;;;;;;31.57;11.10;;;;;;;5.02;73.33;96526.88;5035442;28;20233;-73
2023/03/01 11:14:17;;;;;;;28.03;10.87;;;;;;;5.29;72.76;96513.97;5036097;28;20209;-73
2023/03/01 11:16:46;;;;;;;27.53;9.23;;;;;;;5.05;71.33;96508.34;5036667;28;20216;-73
2023/03/01 11:19:22;;;;;;;26.37;11.43;;;;;;;5.40;69.89;96503.38;5036437;28;20664;-71
2023/03/01 11:21:56;;;;;;;28.97;9.73;;;;;;;5.48;72.09;96496.47;5036242;28;20709;-74
2023/03/01 11:24:28;;;;;;;26.33;10.97;;;;;;;5.54;70.54;96497.72;5035670;28;20200;-74
2023/03/01 11:26:56;;;;;;;28.50;11.10;;;;;;;5.72;70.03;96493.41;5037060;28;20212;-76
2023/03/01 11:29:31;;;;;;;27.47;10.10;;;;;;;5.48;70.48;96493.03;5036325;28;20267;-75
2023/03/01 11:32:02;;;;;;;26.03;9.43;;;;;;;5.53;70.61;96494.25;5036906;28;20282;-75
2023/03/01 11:34:40;;;;;;;34.40;12.27;;;;;;;5.48;71.98;96493.03;5035727;28;20208;-79
2023/03/01 11:37:16;;;;;;;26.37;10.40;;;;;;;5.60;70.28;96484.06;5036982;28;20290;-74
2023/03/01 11:39:47;;;;;;;25.83;8.93;;;;;;;5.49;68.60;96476.41;5036767;28;20212;-73
2023/03/01 11:42:19;;;;;;;25.30;9.37;;;;;;;5.73;71.21;96474.16;5035594;28;20225;-72